sensor_id;sensor_type;location;lat;lon;timestamp;P1;durP1;ratioP1;P2;durP2;ratioP2
12271;SDS011;6198;51.446;6.698;2022-08-21T00:01:23;10.10;;;4.63;;
12271;SDS011;6198;51.446;6.698;2022-08-21T00:03:49;8.10;;;4.43;;
12271;SDS011;6198;51.446;6.698;2022-08-21T00:06:16;11.03;;;4.30;;
12271;SDS011;6198;51.446;6.698;2022-08-21T00:08:42;6.87;;;4.20;;
12271;SDS011;6198;51.446;6.698;2022-08-21T00:11:08;8.60;;;4.67;;
12271;SDS011;6198;51.446;6.698;2022-08-21T00:13:34;7.30;;;3.83;;
12271;SDS011;6198;51.446;6.698;2022-08-21T00:16:01;10.47;;;4.20;;
12271;SDS011;6198;51.446;6.698;2022-08-21T00:18:27;10.17;;;4.90;;
12271;SDS011;6198;51.446;6.698;2022-08-21T00:20:53;10.03;;;4.63;;
12271;SDS011;6198;51.446;6.698;2022-08-21T00:23:19;6.60;;;4.33;;
12271;SDS011;6198;51.446;6.698;2022-08-21T00:25:45;7.80;;;4.33;;
12271;SDS011;6198;51.446;6.698;2022-08-21T00:28:12;7.53;;;5.03;;
12271;SDS011;6198;51.446;6.698;2022-08-21T00:30:38;11.33;;;4.43;;
12271;SDS011;6198;51.446;6.698;2022-08-21T00:33:05;10.30;;;5.30;;
12271;SDS011;6198;51.446;6.698;2022-08-21T00:35:32;7.57;;;4.33;;
12271;SDS011;6198;51.446;6.698;2022-08-21T00:37:59;9.83;;;4.50;;
12271;SDS011;6198;51.446;6.698;2022-08-21T00:40:27;8.27;;;5.00;;
12271;SDS011;6198;51.446;6.698;2022-08-21T00:42:53;7.90;;;4.97;;
12271;SDS011;6198;51.446;6.698;2022-08-21T00:45:20;7.83;;;4.97;;
12271;SDS011;6198;51.446;6.698;2022-08-21T00:47:46;10.30;;;5.40;;
12271;SDS011;6198;51.446;6.698;2022-08-21T00:50:12;6.47;;;4.30;;
12271;SDS011;6198;51.446;6.698;2022-08-21T00:52:38;11.10;;;4.93;;
12271;SDS011;6198;51.446;6.698;2022-08-21T00:55:05;12.03;;;5.17;;
12271;SDS011;6198;51.446;6.698;2022-08-21T00:57:34;8.67;;;5.47;;
12271;SDS011;6198;51.446;6.698;2022-08-21T01:00:03;11.37;;;5.20;;
12271;SDS011;6198;51.446;6.698;2022-08-21T01:02:30;7.27;;;5.10;;
12271;SDS011;6198;51.446;6.698;2022-08-21T01:04:56;6.80;;;4.87;;
12271;SDS011;6198;51.446;6.698;2022-08-21T01:07:22;9.10;;;5.23;;
12271;SDS011;6198;51.446;6.698;2022-08-21T01:09:50;8.97;;;5.50;;
12271;SDS011;6198;51.446;6.698;2022-08-21T01:12:16;8.87;;;5.07;;
12271;SDS011;6198;51.446;6.698;2022-08-21T01:14:43;8.40;;;5.73;;
12271;SDS011;6198;51.446;6.698;2022-08-21T01:17:09;11.50;;;5.23;;
12271;SDS011;6198;51.446;6.698;2022-08-21T01:19:36;8.87;;;6.00;;
12271;SDS011;6198;51.446;6.698;2022-08-21T01:22:02;7.53;;;5.33;;
12271;SDS011;6198;51.446;6.698;2022-08-21T01:24:28;12.27;;;6.07;;
12271;SDS011;6198;51.446;6.698;2022-08-21T01:26:56;12.27;;;6.20;;
12271;SDS011;6198;51.446;6.698;2022-08-21T01:31:49;13.77;;;6.40;;
12271;SDS011;6198;51.446;6.698;2022-08-21T01:34:15;11.33;;;6.30;;
12271;SDS011;6198;51.446;6.698;2022-08-21T01:36:41;9.63;;;6.10;;
12271;SDS011;6198;51.446;6.698;2022-08-21T01:39:08;7.90;;;5.97;;
12271;SDS011;6198;51.446;6.698;2022-08-21T01:41:34;14.07;;;6.57;;
12271;SDS011;6198;51.446;6.698;2022-08-21T01:44:00;8.73;;;6.53;;
12271;SDS011;6198;51.446;6.698;2022-08-21T01:46:26;11.57;;;6.80;;
12271;SDS011;6198;51.446;6.698;2022-08-21T01:48:52;10.13;;;6.30;;
12271;SDS011;6198;51.446;6.698;2022-08-21T01:51:18;11.07;;;6.37;;
12271;SDS011;6198;51.446;6.698;2022-08-21T01:53:44;8.87;;;7.00;;
12271;SDS011;6198;51.446;6.698;2022-08-21T01:56:11;9.77;;;6.40;;
12271;SDS011;6198;51.446;6.698;2022-08-21T01:58:37;8.50;;;6.70;;
12271;SDS011;6198;51.446;6.698;2022-08-21T02:01:03;7.43;;;6.60;;
12271;SDS011;6198;51.446;6.698;2022-08-21T02:03:29;8.60;;;6.53;;
12271;SDS011;6198;51.446;6.698;2022-08-21T02:05:55;11.33;;;7.23;;
12271;SDS011;6198;51.446;6.698;2022-08-21T02:08:21;11.10;;;7.07;;
12271;SDS011;6198;51.446;6.698;2022-08-21T02:10:50;10.77;;;6.93;;
12271;SDS011;6198;51.446;6.698;2022-08-21T02:13:18;8.57;;;6.23;;
12271;SDS011;6198;51.446;6.698;2022-08-21T02:15:44;9.53;;;6.50;;
12271;SDS011;6198;51.446;6.698;2022-08-21T02:18:10;11.77;;;6.77;;
12271;SDS011;6198;51.446;6.698;2022-08-21T02:20:38;10.43;;;7.07;;
12271;SDS011;6198;51.446;6.698;2022-08-21T02:23:05;14.33;;;7.93;;
12271;SDS011;6198;51.446;6.698;2022-08-21T02:25:31;11.40;;;7.33;;
12271;SDS011;6198;51.446;6.698;2022-08-21T02:27:57;12.20;;;7.27;;
12271;SDS011;6198;51.446;6.698;2022-08-21T02:30:25;10.53;;;7.00;;
12271;SDS011;6198;51.446;6.698;2022-08-21T02:32:51;11.27;;;8.00;;
12271;SDS011;6198;51.446;6.698;2022-08-21T02:35:18;10.27;;;7.23;;
12271;SDS011;6198;51.446;6.698;2022-08-21T02:37:45;10.40;;;7.27;;
12271;SDS011;6198;51.446;6.698;2022-08-21T02:40:12;10.13;;;7.93;;
12271;SDS011;6198;51.446;6.698;2022-08-21T02:42:38;12.53;;;8.20;;
12271;SDS011;6198;51.446;6.698;2022-08-21T02:45:05;14.80;;;7.87;;
12271;SDS011;6198;51.446;6.698;2022-08-21T02:47:31;11.40;;;6.77;;
12271;SDS011;6198;51.446;6.698;2022-08-21T02:49:57;8.67;;;7.13;;
12271;SDS011;6198;51.446;6.698;2022-08-21T02:52:22;12.03;;;8.33;;
12271;SDS011;6198;51.446;6.698;2022-08-21T02:54:49;9.67;;;7.60;;
12271;SDS011;6198;51.446;6.698;2022-08-21T02:57:15;8.77;;;7.53;;
12271;SDS011;6198;51.446;6.698;2022-08-21T02:59:41;13.23;;;8.90;;
12271;SDS011;6198;51.446;6.698;2022-08-21T03:02:07;12.10;;;8.77;;
12271;SDS011;6198;51.446;6.698;2022-08-21T03:04:33;11.30;;;8.83;;
12271;SDS011;6198;51.446;6.698;2022-08-21T03:06:59;13.63;;;8.57;;
12271;SDS011;6198;51.446;6.698;2022-08-21T03:09:25;14.17;;;8.97;;
12271;SDS011;6198;51.446;6.698;2022-08-21T03:11:51;11.33;;;8.43;;
12271;SDS011;6198;51.446;6.698;2022-08-21T03:14:17;15.17;;;10.10;;
12271;SDS011;6198;51.446;6.698;2022-08-21T03:16:43;15.07;;;9.67;;
12271;SDS011;6198;51.446;6.698;2022-08-21T03:19:10;14.87;;;9.70;;
12271;SDS011;6198;51.446;6.698;2022-08-21T03:21:35;12.70;;;8.90;;
12271;SDS011;6198;51.446;6.698;2022-08-21T03:24:01;11.93;;;8.97;;
12271;SDS011;6198;51.446;6.698;2022-08-21T03:26:28;11.73;;;9.00;;
12271;SDS011;6198;51.446;6.698;2022-08-21T03:28:54;13.60;;;9.60;;
12271;SDS011;6198;51.446;6.698;2022-08-21T03:31:21;19.40;;;10.37;;
12271;SDS011;6198;51.446;6.698;2022-08-21T03:33:47;16.20;;;10.63;;
12271;SDS011;6198;51.446;6.698;2022-08-21T03:36:13;13.13;;;9.70;;
12271;SDS011;6198;51.446;6.698;2022-08-21T03:38:39;13.00;;;9.03;;
12271;SDS011;6198;51.446;6.698;2022-08-21T03:41:06;15.97;;;10.00;;
12271;SDS011;6198;51.446;6.698;2022-08-21T03:43:32;14.93;;;10.43;;
12271;SDS011;6198;51.446;6.698;2022-08-21T03:45:59;12.30;;;9.47;;
12271;SDS011;6198;51.446;6.698;2022-08-21T03:48:25;11.30;;;9.13;;
12271;SDS011;6198;51.446;6.698;2022-08-21T03:50:52;16.13;;;10.47;;
12271;SDS011;6198;51.446;6.698;2022-08-21T03:53:18;11.83;;;10.20;;
12271;SDS011;6198;51.446;6.698;2022-08-21T03:55:45;15.60;;;10.20;;
12271;SDS011;6198;51.446;6.698;2022-08-21T03:58:12;14.10;;;10.13;;
12271;SDS011;6198;51.446;6.698;2022-08-21T04:00:38;14.53;;;10.57;;
12271;SDS011;6198;51.446;6.698;2022-08-21T04:03:04;14.80;;;10.73;;
12271;SDS011;6198;51.446;6.698;2022-08-21T04:05:31;14.40;;;10.80;;
12271;SDS011;6198;51.446;6.698;2022-08-21T04:07:58;13.83;;;10.60;;
12271;SDS011;6198;51.446;6.698;2022-08-21T04:10:25;14.27;;;10.97;;
12271;SDS011;6198;51.446;6.698;2022-08-21T04:12:52;16.13;;;11.77;;
12271;SDS011;6198;51.446;6.698;2022-08-21T04:15:19;14.90;;;11.70;;
12271;SDS011;6198;51.446;6.698;2022-08-21T04:17:45;15.17;;;11.00;;
12271;SDS011;6198;51.446;6.698;2022-08-21T04:20:11;15.07;;;11.77;;
12271;SDS011;6198;51.446;6.698;2022-08-21T04:22:37;21.23;;;11.77;;
12271;SDS011;6198;51.446;6.698;2022-08-21T04:25:04;15.33;;;10.90;;
12271;SDS011;6198;51.446;6.698;2022-08-21T04:27:30;16.30;;;11.27;;
12271;SDS011;6198;51.446;6.698;2022-08-21T04:29:56;13.80;;;11.27;;
12271;SDS011;6198;51.446;6.698;2022-08-21T04:32:25;13.90;;;11.43;;
12271;SDS011;6198;51.446;6.698;2022-08-21T04:34:57;12.63;;;10.47;;
12271;SDS011;6198;51.446;6.698;2022-08-21T04:37:23;15.80;;;11.77;;
12271;SDS011;6198;51.446;6.698;2022-08-21T04:39:49;17.23;;;11.97;;
12271;SDS011;6198;51.446;6.698;2022-08-21T04:42:15;14.57;;;11.40;;
12271;SDS011;6198;51.446;6.698;2022-08-21T04:44:42;18.43;;;11.87;;
12271;SDS011;6198;51.446;6.698;2022-08-21T04:47:08;17.47;;;11.93;;
12271;SDS011;6198;51.446;6.698;2022-08-21T04:49:33;16.60;;;12.70;;
12271;SDS011;6198;51.446;6.698;2022-08-21T04:51:59;13.70;;;12.30;;
12271;SDS011;6198;51.446;6.698;2022-08-21T04:54:26;16.93;;;13.53;;
12271;SDS011;6198;51.446;6.698;2022-08-21T04:56:56;17.17;;;13.27;;
12271;SDS011;6198;51.446;6.698;2022-08-21T04:59:25;22.70;;;13.90;;
12271;SDS011;6198;51.446;6.698;2022-08-21T05:01:52;16.30;;;13.07;;
12271;SDS011;6198;51.446;6.698;2022-08-21T05:04:21;18.60;;;13.07;;
12271;SDS011;6198;51.446;6.698;2022-08-21T05:06:48;19.80;;;13.23;;
12271;SDS011;6198;51.446;6.698;2022-08-21T05:09:16;20.13;;;12.77;;
12271;SDS011;6198;51.446;6.698;2022-08-21T05:11:42;18.33;;;12.87;;
12271;SDS011;6198;51.446;6.698;2022-08-21T05:14:09;17.57;;;12.53;;
12271;SDS011;6198;51.446;6.698;2022-08-21T05:16:36;17.57;;;12.37;;
12271;SDS011;6198;51.446;6.698;2022-08-21T05:19:02;20.60;;;12.80;;
12271;SDS011;6198;51.446;6.698;2022-08-21T05:21:28;20.50;;;12.17;;
12271;SDS011;6198;51.446;6.698;2022-08-21T05:23:54;17.70;;;11.53;;
12271;SDS011;6198;51.446;6.698;2022-08-21T05:26:20;16.43;;;11.47;;
12271;SDS011;6198;51.446;6.698;2022-08-21T05:28:46;22.93;;;12.13;;
12271;SDS011;6198;51.446;6.698;2022-08-21T05:31:12;18.17;;;11.53;;
12271;SDS011;6198;51.446;6.698;2022-08-21T05:33:38;16.97;;;12.23;;
12271;SDS011;6198;51.446;6.698;2022-08-21T05:36:04;17.80;;;11.60;;
12271;SDS011;6198;51.446;6.698;2022-08-21T05:38:30;16.63;;;11.30;;
12271;SDS011;6198;51.446;6.698;2022-08-21T05:40:56;13.10;;;10.20;;
12271;SDS011;6198;51.446;6.698;2022-08-21T05:43:22;13.93;;;10.00;;
12271;SDS011;6198;51.446;6.698;2022-08-21T05:45:48;12.30;;;8.93;;
12271;SDS011;6198;51.446;6.698;2022-08-21T05:48:15;13.93;;;8.30;;
12271;SDS011;6198;51.446;6.698;2022-08-21T05:50:42;13.00;;;8.30;;
12271;SDS011;6198;51.446;6.698;2022-08-21T05:53:09;13.90;;;8.33;;
12271;SDS011;6198;51.446;6.698;2022-08-21T05:55:35;13.23;;;7.63;;
12271;SDS011;6198;51.446;6.698;2022-08-21T05:58:01;10.23;;;7.60;;
12271;SDS011;6198;51.446;6.698;2022-08-21T06:00:27;11.63;;;6.77;;
12271;SDS011;6198;51.446;6.698;2022-08-21T06:02:53;12.60;;;7.00;;
12271;SDS011;6198;51.446;6.698;2022-08-21T06:05:19;11.20;;;6.47;;
12271;SDS011;6198;51.446;6.698;2022-08-21T06:07:45;10.43;;;6.60;;
12271;SDS011;6198;51.446;6.698;2022-08-21T06:10:12;10.03;;;6.47;;
12271;SDS011;6198;51.446;6.698;2022-08-21T06:12:38;9.67;;;6.30;;
12271;SDS011;6198;51.446;6.698;2022-08-21T06:15:04;15.97;;;6.97;;
12271;SDS011;6198;51.446;6.698;2022-08-21T06:17:30;9.53;;;5.90;;
12271;SDS011;6198;51.446;6.698;2022-08-21T06:19:56;8.47;;;6.00;;
12271;SDS011;6198;51.446;6.698;2022-08-21T06:22:22;9.87;;;5.97;;
12271;SDS011;6198;51.446;6.698;2022-08-21T06:24:48;10.23;;;7.17;;
12271;SDS011;6198;51.446;6.698;2022-08-21T06:27:14;7.83;;;6.40;;
12271;SDS011;6198;51.446;6.698;2022-08-21T06:29:40;12.13;;;5.73;;
12271;SDS011;6198;51.446;6.698;2022-08-21T06:32:06;12.47;;;6.20;;
12271;SDS011;6198;51.446;6.698;2022-08-21T06:34:36;12.23;;;6.13;;
12271;SDS011;6198;51.446;6.698;2022-08-21T06:37:03;9.43;;;6.20;;
12271;SDS011;6198;51.446;6.698;2022-08-21T06:39:28;16.90;;;7.33;;
12271;SDS011;6198;51.446;6.698;2022-08-21T06:41:54;15.53;;;6.47;;
12271;SDS011;6198;51.446;6.698;2022-08-21T06:44:20;9.57;;;6.00;;
12271;SDS011;6198;51.446;6.698;2022-08-21T06:46:46;11.50;;;6.27;;
12271;SDS011;6198;51.446;6.698;2022-08-21T06:49:13;10.73;;;6.10;;
12271;SDS011;6198;51.446;6.698;2022-08-21T06:51:39;10.07;;;5.20;;
12271;SDS011;6198;51.446;6.698;2022-08-21T06:54:05;10.40;;;6.50;;
12271;SDS011;6198;51.446;6.698;2022-08-21T06:56:31;9.90;;;6.03;;
12271;SDS011;6198;51.446;6.698;2022-08-21T06:58:58;11.93;;;5.90;;
12271;SDS011;6198;51.446;6.698;2022-08-21T07:01:25;9.63;;;5.57;;
12271;SDS011;6198;51.446;6.698;2022-08-21T07:03:51;12.30;;;5.80;;
12271;SDS011;6198;51.446;6.698;2022-08-21T07:06:17;11.10;;;5.27;;
12271;SDS011;6198;51.446;6.698;2022-08-21T07:08:43;8.90;;;4.20;;
12271;SDS011;6198;51.446;6.698;2022-08-21T07:11:11;10.43;;;4.07;;
12271;SDS011;6198;51.446;6.698;2022-08-21T07:13:38;8.87;;;4.40;;
12271;SDS011;6198;51.446;6.698;2022-08-21T07:16:04;11.70;;;4.43;;
12271;SDS011;6198;51.446;6.698;2022-08-21T07:18:30;7.57;;;3.60;;
12271;SDS011;6198;51.446;6.698;2022-08-21T07:20:56;10.13;;;4.17;;
12271;SDS011;6198;51.446;6.698;2022-08-21T07:23:24;8.60;;;4.00;;
12271;SDS011;6198;51.446;6.698;2022-08-21T07:25:52;8.07;;;3.40;;
12271;SDS011;6198;51.446;6.698;2022-08-21T07:28:18;8.73;;;3.67;;
12271;SDS011;6198;51.446;6.698;2022-08-21T07:30:44;6.33;;;2.73;;
12271;SDS011;6198;51.446;6.698;2022-08-21T07:33:10;6.33;;;3.20;;
12271;SDS011;6198;51.446;6.698;2022-08-21T07:35:36;7.90;;;3.40;;
12271;SDS011;6198;51.446;6.698;2022-08-21T07:38:02;6.80;;;3.13;;
12271;SDS011;6198;51.446;6.698;2022-08-21T07:40:28;7.00;;;3.50;;
12271;SDS011;6198;51.446;6.698;2022-08-21T07:42:54;6.83;;;3.40;;
12271;SDS011;6198;51.446;6.698;2022-08-21T07:45:21;5.30;;;2.80;;
12271;SDS011;6198;51.446;6.698;2022-08-21T07:47:49;6.33;;;2.63;;
12271;SDS011;6198;51.446;6.698;2022-08-21T07:50:15;8.40;;;3.13;;
12271;SDS011;6198;51.446;6.698;2022-08-21T07:52:41;9.63;;;3.10;;
12271;SDS011;6198;51.446;6.698;2022-08-21T07:55:08;6.83;;;2.73;;
12271;SDS011;6198;51.446;6.698;2022-08-21T07:57:35;8.80;;;2.97;;
12271;SDS011;6198;51.446;6.698;2022-08-21T08:00:03;5.87;;;2.80;;
12271;SDS011;6198;51.446;6.698;2022-08-21T08:02:29;6.67;;;2.80;;
12271;SDS011;6198;51.446;6.698;2022-08-21T08:05:03;7.23;;;2.53;;
12271;SDS011;6198;51.446;6.698;2022-08-21T08:07:30;8.30;;;2.57;;
12271;SDS011;6198;51.446;6.698;2022-08-21T08:09:56;5.30;;;2.40;;
12271;SDS011;6198;51.446;6.698;2022-08-21T08:12:23;4.63;;;2.23;;
12271;SDS011;6198;51.446;6.698;2022-08-21T08:14:55;4.60;;;2.27;;
12271;SDS011;6198;51.446;6.698;2022-08-21T08:17:22;5.60;;;2.40;;
12271;SDS011;6198;51.446;6.698;2022-08-21T08:19:48;5.53;;;2.33;;
12271;SDS011;6198;51.446;6.698;2022-08-21T08:22:15;7.93;;;2.47;;
12271;SDS011;6198;51.446;6.698;2022-08-21T08:24:42;4.67;;;2.57;;
12271;SDS011;6198;51.446;6.698;2022-08-21T08:27:08;5.47;;;2.10;;
12271;SDS011;6198;51.446;6.698;2022-08-21T08:29:34;5.37;;;2.30;;
12271;SDS011;6198;51.446;6.698;2022-08-21T08:32:00;9.73;;;2.30;;
12271;SDS011;6198;51.446;6.698;2022-08-21T08:34:26;5.23;;;2.47;;
12271;SDS011;6198;51.446;6.698;2022-08-21T08:36:52;5.57;;;2.33;;
12271;SDS011;6198;51.446;6.698;2022-08-21T08:39:18;5.70;;;2.70;;
12271;SDS011;6198;51.446;6.698;2022-08-21T08:41:44;4.13;;;2.00;;
12271;SDS011;6198;51.446;6.698;2022-08-21T08:44:12;7.30;;;2.73;;
12271;SDS011;6198;51.446;6.698;2022-08-21T08:46:43;6.23;;;2.27;;
12271;SDS011;6198;51.446;6.698;2022-08-21T08:52:16;6.83;;;2.50;;
12271;SDS011;6198;51.446;6.698;2022-08-21T08:54:45;4.17;;;2.30;;
12271;SDS011;6198;51.446;6.698;2022-08-21T08:57:15;5.90;;;2.30;;
12271;SDS011;6198;51.446;6.698;2022-08-21T08:59:43;3.57;;;2.20;;
12271;SDS011;6198;51.446;6.698;2022-08-21T09:02:11;5.97;;;2.60;;
12271;SDS011;6198;51.446;6.698;2022-08-21T09:04:38;6.13;;;2.53;;
12271;SDS011;6198;51.446;6.698;2022-08-21T09:07:08;5.47;;;2.23;;
12271;SDS011;6198;51.446;6.698;2022-08-21T09:09:42;4.40;;;1.93;;
12271;SDS011;6198;51.446;6.698;2022-08-21T09:12:19;3.50;;;2.20;;
12271;SDS011;6198;51.446;6.698;2022-08-21T09:15:09;7.93;;;2.57;;
12271;SDS011;6198;51.446;6.698;2022-08-21T09:25:27;4.73;;;2.47;;
12271;SDS011;6198;51.446;6.698;2022-08-21T09:27:54;3.30;;;2.13;;
12271;SDS011;6198;51.446;6.698;2022-08-21T09:30:28;5.40;;;1.93;;
12271;SDS011;6198;51.446;6.698;2022-08-21T09:32:55;6.60;;;2.37;;
12271;SDS011;6198;51.446;6.698;2022-08-21T09:35:22;8.90;;;2.23;;
12271;SDS011;6198;51.446;6.698;2022-08-21T09:37:54;2.90;;;2.00;;
12271;SDS011;6198;51.446;6.698;2022-08-21T09:40:25;4.17;;;2.23;;
12271;SDS011;6198;51.446;6.698;2022-08-21T09:42:56;4.83;;;2.13;;
12271;SDS011;6198;51.446;6.698;2022-08-21T09:45:22;5.10;;;2.17;;
12271;SDS011;6198;51.446;6.698;2022-08-21T09:47:48;4.80;;;2.43;;
12271;SDS011;6198;51.446;6.698;2022-08-21T09:50:21;5.30;;;1.93;;
12271;SDS011;6198;51.446;6.698;2022-08-21T09:52:48;5.37;;;1.77;;
12271;SDS011;6198;51.446;6.698;2022-08-21T09:58:30;4.77;;;2.17;;
12271;SDS011;6198;51.446;6.698;2022-08-21T10:01:00;5.43;;;2.30;;
12271;SDS011;6198;51.446;6.698;2022-08-21T10:03:26;4.40;;;2.23;;
12271;SDS011;6198;51.446;6.698;2022-08-21T10:06:00;5.67;;;2.30;;
12271;SDS011;6198;51.446;6.698;2022-08-21T10:08:27;6.90;;;2.50;;
12271;SDS011;6198;51.446;6.698;2022-08-21T10:11:00;5.13;;;2.20;;
12271;SDS011;6198;51.446;6.698;2022-08-21T10:16:15;7.47;;;2.53;;
12271;SDS011;6198;51.446;6.698;2022-08-21T10:18:42;5.73;;;2.37;;
12271;SDS011;6198;51.446;6.698;2022-08-21T10:21:15;4.40;;;2.20;;
12271;SDS011;6198;51.446;6.698;2022-08-21T10:23:51;5.23;;;2.53;;
12271;SDS011;6198;51.446;6.698;2022-08-21T10:26:41;5.40;;;2.10;;
12271;SDS011;6198;51.446;6.698;2022-08-21T10:29:37;4.87;;;2.20;;
12271;SDS011;6198;51.446;6.698;2022-08-21T10:39:46;2.73;;;2.00;;
12271;SDS011;6198;51.446;6.698;2022-08-21T10:42:17;5.20;;;2.07;;
12271;SDS011;6198;51.446;6.698;2022-08-21T10:44:51;4.13;;;1.93;;
12271;SDS011;6198;51.446;6.698;2022-08-21T10:47:26;4.90;;;1.80;;
12271;SDS011;6198;51.446;6.698;2022-08-21T10:55:20;3.80;;;1.60;;
12271;SDS011;6198;51.446;6.698;2022-08-21T10:57:54;6.13;;;1.80;;
12271;SDS011;6198;51.446;6.698;2022-08-21T11:00:23;2.10;;;1.60;;
12271;SDS011;6198;51.446;6.698;2022-08-21T11:02:55;3.17;;;1.77;;
12271;SDS011;6198;51.446;6.698;2022-08-21T11:07:53;2.77;;;1.50;;
12271;SDS011;6198;51.446;6.698;2022-08-21T11:10:24;2.83;;;1.70;;
12271;SDS011;6198;51.446;6.698;2022-08-21T11:12:54;2.67;;;1.60;;
12271;SDS011;6198;51.446;6.698;2022-08-21T11:18:00;2.13;;;1.40;;
12271;SDS011;6198;51.446;6.698;2022-08-21T11:20:29;4.00;;;1.83;;
12271;SDS011;6198;51.446;6.698;2022-08-21T11:25:39;2.57;;;1.50;;
12271;SDS011;6198;51.446;6.698;2022-08-21T11:28:22;2.93;;;1.57;;
12271;SDS011;6198;51.446;6.698;2022-08-21T11:31:10;2.73;;;1.60;;
12271;SDS011;6198;51.446;6.698;2022-08-21T11:36:45;2.97;;;1.50;;
12271;SDS011;6198;51.446;6.698;2022-08-21T11:44:10;3.30;;;1.73;;
12271;SDS011;6198;51.446;6.698;2022-08-21T11:55:03;2.90;;;1.63;;
12271;SDS011;6198;51.446;6.698;2022-08-21T11:57:25;3.27;;;1.57;;
12271;SDS011;6198;51.446;6.698;2022-08-21T12:00:01;2.10;;;1.40;;
12271;SDS011;6198;51.446;6.698;2022-08-21T12:02:29;2.77;;;1.70;;
12271;SDS011;6198;51.446;6.698;2022-08-21T12:05:02;4.20;;;1.70;;
12271;SDS011;6198;51.446;6.698;2022-08-21T12:07:33;3.20;;;1.70;;
12271;SDS011;6198;51.446;6.698;2022-08-21T12:10:00;2.53;;;1.53;;
12271;SDS011;6198;51.446;6.698;2022-08-21T12:12:32;5.93;;;2.20;;
12271;SDS011;6198;51.446;6.698;2022-08-21T12:15:11;3.17;;;1.57;;
12271;SDS011;6198;51.446;6.698;2022-08-21T12:17:39;4.43;;;1.50;;
12271;SDS011;6198;51.446;6.698;2022-08-21T12:23:02;2.83;;;1.53;;
12271;SDS011;6198;51.446;6.698;2022-08-21T12:25:36;4.40;;;1.60;;
12271;SDS011;6198;51.446;6.698;2022-08-21T12:28:06;2.07;;;1.60;;
12271;SDS011;6198;51.446;6.698;2022-08-21T12:30:36;5.43;;;1.87;;
12271;SDS011;6198;51.446;6.698;2022-08-21T12:33:03;3.67;;;1.63;;
12271;SDS011;6198;51.446;6.698;2022-08-21T12:38:04;3.93;;;1.70;;
12271;SDS011;6198;51.446;6.698;2022-08-21T12:40:40;5.23;;;2.00;;
12271;SDS011;6198;51.446;6.698;2022-08-21T12:43:11;4.40;;;1.70;;
12271;SDS011;6198;51.446;6.698;2022-08-21T12:45:42;4.77;;;1.70;;
12271;SDS011;6198;51.446;6.698;2022-08-21T12:48:18;5.10;;;2.03;;
12271;SDS011;6198;51.446;6.698;2022-08-21T12:50:52;1.57;;;1.47;;
12271;SDS011;6198;51.446;6.698;2022-08-21T12:53:29;5.77;;;1.60;;
12271;SDS011;6198;51.446;6.698;2022-08-21T12:55:56;3.70;;;1.40;;
12271;SDS011;6198;51.446;6.698;2022-08-21T12:58:27;5.40;;;1.90;;
12271;SDS011;6198;51.446;6.698;2022-08-21T13:00:55;3.03;;;1.67;;
12271;SDS011;6198;51.446;6.698;2022-08-21T13:03:22;3.33;;;1.80;;
12271;SDS011;6198;51.446;6.698;2022-08-21T13:05:49;4.30;;;1.90;;
12271;SDS011;6198;51.446;6.698;2022-08-21T13:08:18;5.10;;;2.10;;
12271;SDS011;6198;51.446;6.698;2022-08-21T13:10:44;4.77;;;2.00;;
12271;SDS011;6198;51.446;6.698;2022-08-21T13:13:17;4.40;;;2.00;;
12271;SDS011;6198;51.446;6.698;2022-08-21T13:15:45;4.93;;;2.23;;
12271;SDS011;6198;51.446;6.698;2022-08-21T13:18:19;5.40;;;2.30;;
12271;SDS011;6198;51.446;6.698;2022-08-21T13:20:45;3.63;;;1.83;;
12271;SDS011;6198;51.446;6.698;2022-08-21T13:23:25;2.37;;;1.67;;
12271;SDS011;6198;51.446;6.698;2022-08-21T13:25:51;5.47;;;2.03;;
12271;SDS011;6198;51.446;6.698;2022-08-21T13:28:17;6.63;;;2.10;;
12271;SDS011;6198;51.446;6.698;2022-08-21T13:30:44;3.83;;;1.93;;
12271;SDS011;6198;51.446;6.698;2022-08-21T13:33:12;2.37;;;2.00;;
12271;SDS011;6198;51.446;6.698;2022-08-21T13:38:41;4.00;;;2.03;;
12271;SDS011;6198;51.446;6.698;2022-08-21T13:41:25;4.30;;;2.00;;
12271;SDS011;6198;51.446;6.698;2022-08-21T13:43:57;3.40;;;1.80;;
12271;SDS011;6198;51.446;6.698;2022-08-21T13:46:24;5.80;;;2.00;;
12271;SDS011;6198;51.446;6.698;2022-08-21T13:48:52;4.23;;;2.60;;
12271;SDS011;6198;51.446;6.698;2022-08-21T13:51:19;3.43;;;2.27;;
12271;SDS011;6198;51.446;6.698;2022-08-21T13:53:46;6.17;;;2.70;;
12271;SDS011;6198;51.446;6.698;2022-08-21T13:56:30;3.73;;;2.00;;
12271;SDS011;6198;51.446;6.698;2022-08-21T13:58:57;4.90;;;1.83;;
12271;SDS011;6198;51.446;6.698;2022-08-21T14:01:28;6.53;;;1.80;;
12271;SDS011;6198;51.446;6.698;2022-08-21T14:03:57;5.73;;;2.43;;
12271;SDS011;6198;51.446;6.698;2022-08-21T14:06:26;7.80;;;2.30;;
12271;SDS011;6198;51.446;6.698;2022-08-21T14:11:19;7.83;;;2.03;;
12271;SDS011;6198;51.446;6.698;2022-08-21T14:13:46;3.57;;;2.00;;
12271;SDS011;6198;51.446;6.698;2022-08-21T14:18:52;6.47;;;2.97;;
12271;SDS011;6198;51.446;6.698;2022-08-21T14:21:24;4.33;;;1.90;;
12271;SDS011;6198;51.446;6.698;2022-08-21T14:26:29;3.17;;;2.07;;
12271;SDS011;6198;51.446;6.698;2022-08-21T14:28:58;4.33;;;2.10;;
12271;SDS011;6198;51.446;6.698;2022-08-21T14:31:27;3.07;;;1.90;;
12271;SDS011;6198;51.446;6.698;2022-08-21T14:33:54;7.45;;;2.10;;
12271;SDS011;6198;51.446;6.698;2022-08-21T14:36:20;3.77;;;1.90;;
12271;SDS011;6198;51.446;6.698;2022-08-21T14:38:46;5.97;;;2.07;;
12271;SDS011;6198;51.446;6.698;2022-08-21T14:41:16;2.83;;;1.90;;
12271;SDS011;6198;51.446;6.698;2022-08-21T14:43:44;6.00;;;2.20;;
12271;SDS011;6198;51.446;6.698;2022-08-21T14:46:11;2.85;;;1.95;;
12271;SDS011;6198;51.446;6.698;2022-08-21T14:48:38;5.13;;;1.88;;
12271;SDS011;6198;51.446;6.698;2022-08-21T14:51:04;3.72;;;1.90;;
12271;SDS011;6198;51.446;6.698;2022-08-21T14:53:31;4.63;;;2.10;;
12271;SDS011;6198;51.446;6.698;2022-08-21T14:55:57;3.85;;;2.30;;
12271;SDS011;6198;51.446;6.698;2022-08-21T14:58:36;6.78;;;2.20;;
12271;SDS011;6198;51.446;6.698;2022-08-21T15:01:03;4.03;;;2.10;;
12271;SDS011;6198;51.446;6.698;2022-08-21T15:03:30;3.30;;;1.70;;
12271;SDS011;6198;51.446;6.698;2022-08-21T15:05:57;4.43;;;2.30;;
12271;SDS011;6198;51.446;6.698;2022-08-21T15:08:23;6.60;;;2.53;;
12271;SDS011;6198;51.446;6.698;2022-08-21T15:10:50;5.17;;;2.10;;
12271;SDS011;6198;51.446;6.698;2022-08-21T15:13:17;5.97;;;2.40;;
12271;SDS011;6198;51.446;6.698;2022-08-21T15:15:44;4.78;;;2.10;;
12271;SDS011;6198;51.446;6.698;2022-08-21T15:18:10;3.58;;;1.92;;
12271;SDS011;6198;51.446;6.698;2022-08-21T15:20:36;4.57;;;2.35;;
12271;SDS011;6198;51.446;6.698;2022-08-21T15:23:03;4.25;;;2.10;;
12271;SDS011;6198;51.446;6.698;2022-08-21T15:25:29;3.10;;;1.90;;
12271;SDS011;6198;51.446;6.698;2022-08-21T15:27:55;2.85;;;1.92;;
12271;SDS011;6198;51.446;6.698;2022-08-21T15:30:21;3.90;;;2.25;;
12271;SDS011;6198;51.446;6.698;2022-08-21T15:32:47;6.50;;;2.38;;
12271;SDS011;6198;51.446;6.698;2022-08-21T15:35:13;2.50;;;1.80;;
12271;SDS011;6198;51.446;6.698;2022-08-21T15:37:39;3.70;;;1.85;;
12271;SDS011;6198;51.446;6.698;2022-08-21T15:40:05;3.63;;;1.90;;
12271;SDS011;6198;51.446;6.698;2022-08-21T15:42:32;3.83;;;2.10;;
12271;SDS011;6198;51.446;6.698;2022-08-21T15:44:58;4.15;;;2.00;;
12271;SDS011;6198;51.446;6.698;2022-08-21T15:47:25;4.78;;;2.13;;
12271;SDS011;6198;51.446;6.698;2022-08-21T15:49:53;3.80;;;2.25;;
12271;SDS011;6198;51.446;6.698;2022-08-21T15:52:19;3.28;;;1.90;;
12271;SDS011;6198;51.446;6.698;2022-08-21T15:54:46;3.72;;;2.03;;
12271;SDS011;6198;51.446;6.698;2022-08-21T15:57:14;3.80;;;1.80;;
12271;SDS011;6198;51.446;6.698;2022-08-21T15:59:42;2.75;;;1.75;;
12271;SDS011;6198;51.446;6.698;2022-08-21T16:02:16;4.68;;;2.10;;
12271;SDS011;6198;51.446;6.698;2022-08-21T16:04:43;3.97;;;2.20;;
12271;SDS011;6198;51.446;6.698;2022-08-21T16:07:09;3.60;;;1.90;;
12271;SDS011;6198;51.446;6.698;2022-08-21T16:09:35;5.50;;;2.20;;
12271;SDS011;6198;51.446;6.698;2022-08-21T16:12:01;3.33;;;1.90;;